Time;durP1;ratioP1;P1;durP2;ratioP2;P2;SDS_P1;SDS_P2;PMS_P1;PMS_P2;Temp;Humidity;BMP_temperature;BMP_pressure;BME280_temperature;BME280_humidity;BME280_pressure;Samples;Min_cycle;Max_cycle;Signal;HPM_P1;HPM_P2
2021/03/27 00:00:34;;;;;;;12.32;4.78;;;;;;;7.46;77.66;100875.41;5047361;28;20041;-67
2021/03/27 00:03:03;;;;;;;8.57;4.88;;;;;;;7.45;77.84;100879.69;5040922;28;20379;-67
2021/03/27 00:05:34;;;;;;;9.60;5.13;;;;;;;7.41;77.51;100883.19;5039041;28;20045;-68
2021/03/27 00:08:06;;;;;;;8.35;4.72;;;;;;;7.41;77.58;100890.94;5035947;28;20041;-66
2021/03/27 00:10:39;;;;;;;9.32;4.93;;;;;;;7.36;77.62;100897.00;5043245;28;20375;-67
2021/03/27 00:13:16;;;;;;;9.63;5.30;;;;;;;7.37;77.97;100909.06;5044882;28;20052;-67
2021/03/27 00:15:51;;;;;;;10.05;4.88;;;;;;;7.34;77.44;100899.56;5042886;28;20057;-67
2021/03/27 00:18:22;;;;;;;9.57;5.47;;;;;;;7.34;78.20;100907.31;5036469;28;20567;-67
2021/03/27 00:20:53;;;;;;;5.75;3.67;;;;;;;7.24;75.80;100911.69;5043712;28;20061;-66
2021/03/27 00:23:22;;;;;;;6.03;3.03;;;;;;;6.96;75.33;100895.34;5042809;28;20132;-67
2021/03/27 00:25:54;;;;;;;6.72;3.17;;;;;;;6.83;75.79;100915.19;5040936;28;20041;-67
2021/03/27 00:28:24;;;;;;;7.65;2.75;;;;;;;6.66;76.74;100938.47;5036271;28;20049;-67
2021/03/27 00:30:54;;;;;;;4.55;2.70;;;;;;;6.59;76.35;100952.25;5043157;28;20079;-65
2021/03/27 00:33:24;;;;;;;4.65;3.00;;;;;;;6.54;76.08;100960.84;5041981;28;20056;-65
2021/03/27 00:35:56;;;;;;;5.68;3.03;;;;;;;6.41;76.35;100961.72;5046438;28;20075;-63
2021/03/27 00:38:26;;;;;;;5.85;3.22;;;;;;;6.46;76.63;100969.47;5039600;28;20041;-65
2021/03/27 00:40:53;;;;;;;5.40;3.75;;;;;;;6.48;76.77;100973.78;5043919;28;20119;-65
2021/03/27 00:43:24;;;;;;;7.95;5.00;;;;;;;6.44;77.11;100973.78;5040494;28;20048;-65
2021/03/27 00:45:54;;;;;;;8.15;4.95;;;;;;;6.43;76.56;100975.50;5042371;28;20060;-66
2021/03/27 00:48:27;;;;;;;7.10;5.00;;;;;;;6.43;76.79;100978.09;5043216;28;20050;-65
2021/03/27 00:50:57;;;;;;;11.52;5.28;;;;;;;6.46;77.36;100978.06;5045372;28;20064;-63
2021/03/27 00:53:28;;;;;;;8.02;5.07;;;;;;;6.45;77.77;100976.34;5038759;28;20041;-65
2021/03/27 00:56:02;;;;;;;8.77;5.18;;;;;;;6.50;77.57;100968.59;5040129;28;20079;-64
2021/03/27 00:58:33;;;;;;;9.18;5.90;;;;;;;6.45;77.78;100981.53;5046144;28;20038;-64
2021/03/27 01:01:03;;;;;;;9.20;5.95;;;;;;;6.52;77.88;100972.06;5040409;28;20047;-65
2021/03/27 01:03:34;;;;;;;10.27;5.95;;;;;;;6.51;78.82;100981.56;5048960;28;20040;-67
2021/03/27 01:06:02;;;;;;;8.82;6.47;;;;;;;6.40;79.41;100983.25;5055074;28;20041;-66
2021/03/27 01:08:30;;;;;;;11.45;6.40;;;;;;;6.49;79.34;100983.25;5044571;28;20045;-66
2021/03/27 01:11:00;;;;;;;10.00;6.63;;;;;;;6.39;79.47;100973.78;5047443;28;20119;-65
2021/03/27 01:13:31;;;;;;;10.27;5.95;;;;;;;6.45;78.25;100978.94;5048357;28;20044;-66
2021/03/27 01:16:00;;;;;;;7.93;4.90;;;;;;;6.52;77.45;100987.56;5052447;28;20452;-66
2021/03/27 01:18:32;;;;;;;7.72;5.53;;;;;;;6.24;78.06;100982.34;5052537;28;20118;-66
2021/03/27 01:21:05;;;;;;;13.63;4.70;;;;;;;6.13;79.20;100984.91;5055191;28;20045;-66
2021/03/27 01:23:31;;;;;;;9.30;5.75;;;;;;;6.21;79.25;100993.53;5046932;28;20040;-66
2021/03/27 01:26:00;;;;;;;10.63;4.88;;;;;;;6.16;79.61;100987.47;5051521;28;20053;-66
2021/03/27 01:28:32;;;;;;;6.45;4.10;;;;;;;6.25;78.69;100999.56;5045871;28;20041;-66
2021/03/27 01:31:07;;;;;;;7.55;4.20;;;;;;;6.31;78.75;100990.97;5044371;28;20067;-65
2021/03/27 01:33:37;;;;;;;10.27;4.70;;;;;;;6.19;78.74;100994.38;5053174;28;20130;-66
2021/03/27 01:36:13;;;;;;;12.23;4.80;;;;;;;6.20;79.04;100996.97;5049802;28;20047;-66
2021/03/27 01:38:45;;;;;;;11.00;4.75;;;;;;;6.21;79.37;100987.50;5049572;28;20486;-65
2021/03/27 01:41:22;;;;;;;7.50;4.22;;;;;;;6.21;79.07;100987.50;5047793;28;20034;-65
2021/03/27 01:44:04;;;;;;;7.00;3.58;;;;;;;6.30;78.80;100992.69;5044892;28;20041;-66
2021/03/27 01:46:40;;;;;;;8.25;3.72;;;;;;;6.25;79.43;100990.94;5049674;28;20064;-65
2021/03/27 01:49:19;;;;;;;6.57;3.20;;;;;;;6.24;78.62;100997.00;5049437;28;20037;-65
2021/03/27 01:52:09;;;;;;;8.88;3.55;;;;;;;6.27;78.84;100994.41;5050705;28;20053;-66
2021/03/27 01:54:39;;;;;;;7.82;2.50;;;;;;;6.43;78.52;100993.59;5046654;28;20045;-66
2021/03/27 01:57:18;;;;;;;8.70;2.50;;;;;;;6.38;78.47;101005.63;5052303;28;20045;-66
2021/03/27 01:59:48;;;;;;;6.82;2.10;;;;;;;6.18;79.26;101008.19;5050354;28;20129;-66
2021/03/27 02:02:20;;;;;;;5.15;1.83;;;;;;;6.24;79.17;101020.25;5048257;28;20068;-66
2021/03/27 02:04:51;;;;;;;4.18;1.73;;;;;;;6.10;79.48;101013.31;5052991;28;20462;-66
2021/03/27 02:07:20;;;;;;;11.30;1.88;;;;;;;6.04;80.32;101027.06;5050751;28;20048;-66
2021/03/27 02:09:54;;;;;;;6.60;1.92;;;;;;;6.12;80.27;101021.03;5048485;28;20103;-66
2021/03/27 02:12:33;;;;;;;8.17;2.17;;;;;;;6.11;79.99;101027.94;5048741;28;20053;-66
2021/03/27 02:15:11;;;;;;;8.45;1.73;;;;;;;6.04;80.64;101026.16;5051340;28;20044;-65
2021/03/27 02:17:44;;;;;;;8.52;2.20;;;;;;;6.15;80.49;101039.16;5049794;28;20041;-65
2021/03/27 02:20:32;;;;;;;6.70;1.80;;;;;;;6.28;80.33;101027.13;5049720;28;20041;-65
2021/03/27 02:23:11;;;;;;;5.00;1.63;;;;;;;6.34;79.45;101020.25;5052513;28;20049;-65
2021/03/27 02:26:05;;;;;;;5.15;1.67;;;;;;;6.14;80.33;101016.75;5059835;28;20044;-66
2021/03/27 02:28:45;;;;;;;5.10;1.27;;;;;;;6.15;80.20;101008.16;5054357;28;20037;-66
2021/03/27 02:31:15;;;;;;;9.25;2.67;;;;;;;6.11;80.19;101017.63;5053657;28;20056;-65
2021/03/27 02:33:49;;;;;;;10.02;1.70;;;;;;;6.06;80.07;101019.28;5046621;28;20060;-66
2021/03/27 02:36:30;;;;;;;8.40;1.90;;;;;;;6.07;80.04;101028.78;5049112;28;20041;-66
2021/03/27 02:39:10;;;;;;;8.55;2.13;;;;;;;6.09;80.51;101031.38;5048050;28;20490;-66
2021/03/27 02:41:54;;;;;;;6.57;2.53;;;;;;;5.98;80.60;101032.16;5048248;28;20053;-66
2021/03/27 02:44:28;;;;;;;8.57;1.70;;;;;;;6.09;80.61;101046.88;5048087;28;20044;-67
2021/03/27 02:47:05;;;;;;;8.63;1.75;;;;;;;6.09;79.73;101047.72;5051986;28;20053;-66
2021/03/27 02:49:40;;;;;;;12.23;1.80;;;;;;;5.98;80.23;101057.09;5052589;28;20522;-66
2021/03/27 02:52:22;;;;;;;6.03;1.90;;;;;;;6.00;80.21;101056.28;5043407;28;20053;-66
2021/03/27 02:54:55;;;;;;;4.88;1.60;;;;;;;5.98;80.60;101060.56;5047330;28;20140;-66
2021/03/27 02:57:30;;;;;;;10.00;2.20;;;;;;;5.88;79.69;101059.66;5050219;28;20052;-66
2021/03/27 03:00:01;;;;;;;8.73;1.92;;;;;;;6.12;79.18;101059.78;5077838;22;20094;-68
2021/03/27 03:02:40;;;;;;;6.22;1.90;;;;;;;6.07;78.79;101076.13;5054828;28;20052;-67
2021/03/27 03:05:32;;;;;;;15.98;2.03;;;;;;;6.07;78.73;101086.47;5063129;28;20049;-68
2021/03/27 03:08:11;;;;;;;5.90;2.10;;;;;;;6.02;78.58;101085.56;5068056;28;20040;-68
2021/03/27 03:10:42;;;;;;;7.70;1.83;;;;;;;6.01;78.88;101085.56;5057833;28;20069;-68
2021/03/27 03:13:18;;;;;;;7.05;2.28;;;;;;;5.93;78.79;101097.53;5063571;28;20052;-66
2021/03/27 03:15:52;;;;;;;6.43;1.92;;;;;;;6.03;78.08;101092.47;5056847;28;20049;-66
2021/03/27 03:18:31;;;;;;;12.73;2.60;;;;;;;5.91;78.84;101100.09;5058397;28;20041;-66
2021/03/27 03:21:03;;;;;;;7.85;2.33;;;;;;;5.93;78.40;101100.97;5065174;28;20044;-66
2021/03/27 03:23:33;;;;;;;9.93;2.35;;;;;;;5.79;78.58;101105.22;5068346;28;20041;-68
2021/03/27 03:26:09;;;;;;;8.00;2.22;;;;;;;5.85;78.30;101108.66;5056375;28;20040;-66
2021/03/27 03:28:46;;;;;;;11.30;2.45;;;;;;;5.70;78.34;101113.75;5065236;28;20043;-67
2021/03/27 03:31:21;;;;;;;11.55;2.20;;;;;;;5.64;78.86;101109.41;5065312;28;20643;-67
2021/03/27 03:34:12;;;;;;;19.73;3.35;;;;;;;5.56;78.52;101111.91;5062683;28;20041;-68
2021/03/27 03:36:53;;;;;;;9.43;2.28;;;;;;;5.58;78.90;101120.53;5059242;28;20041;-67
2021/03/27 03:39:43;;;;;;;6.97;2.90;;;;;;;5.58;78.65;101120.53;5065231;28;20036;-67
2021/03/27 03:42:39;;;;;;;12.20;2.10;;;;;;;5.49;79.24;101133.38;5047131;28;20052;-66
2021/03/27 03:45:12;;;;;;;10.93;2.50;;;;;;;5.66;77.96;101122.31;5060396;28;20473;-67
2021/03/27 03:47:48;;;;;;;9.82;2.78;;;;;;;5.67;78.20;101127.50;5058546;28;20032;-69
2021/03/27 03:50:31;;;;;;;11.55;2.42;;;;;;;5.69;78.08;101133.50;5060584;28;20383;-66
2021/03/27 03:53:22;;;;;;;14.93;3.95;;;;;;;5.55;78.41;101136.00;5065515;28;20041;-67
2021/03/27 03:56:00;;;;;;;9.98;2.58;;;;;;;5.52;78.72;101135.09;5059944;28;20493;-67
2021/03/27 03:58:50;;;;;;;12.35;2.58;;;;;;;5.49;79.15;101138.53;5069466;28;20056;-68
2021/03/27 04:01:31;;;;;;;11.40;2.45;;;;;;;5.62;78.40;101141.22;5059981;28;20059;-69
2021/03/27 04:04:03;;;;;;;10.07;2.97;;;;;;;5.64;78.69;101144.69;5053470;28;20044;-67
2021/03/27 04:06:34;;;;;;;17.40;3.35;;;;;;;5.58;78.31;101130.84;5053337;28;20045;-67
2021/03/27 04:09:06;;;;;;;9.48;2.95;;;;;;;5.58;78.49;101135.16;5056772;28;20064;-66
2021/03/27 04:11:43;;;;;;;9.85;2.70;;;;;;;5.44;78.74;101137.59;5062390;28;20396;-68
2021/03/27 04:14:16;;;;;;;9.43;2.47;;;;;;;5.40;78.71;101141.88;5062217;28;20055;-66
2021/03/27 04:16:46;;;;;;;12.63;3.60;;;;;;;5.53;78.09;101135.13;5056304;28;20095;-67
2021/03/27 04:19:16;;;;;;;10.65;2.58;;;;;;;5.59;77.83;101148.06;5055277;28;20053;-68
2021/03/27 04:21:59;;;;;;;10.93;2.50;;;;;;;5.71;77.62;101143.88;5058593;28;20037;-68
2021/03/27 04:24:29;;;;;;;8.82;3.00;;;;;;;5.70;77.51;101147.28;5059283;28;20041;-67
2021/03/27 04:26:59;;;;;;;10.40;2.50;;;;;;;5.63;77.75;101146.38;5062774;28;20044;-67
2021/03/27 04:29:34;;;;;;;11.18;2.25;;;;;;;5.70;77.56;101139.56;5056767;28;20044;-67
2021/03/27 04:32:25;;;;;;;11.85;2.85;;;;;;;5.82;77.13;101143.94;5061916;28;20051;-66
2021/03/27 04:35:02;;;;;;;8.80;2.50;;;;;;;5.87;77.07;101147.41;5061184;28;20044;-67
2021/03/27 04:37:36;;;;;;;14.27;2.78;;;;;;;5.83;77.04;101143.97;5060250;28;20480;-67
2021/03/27 04:40:08;;;;;;;11.63;3.17;;;;;;;5.77;77.27;101146.47;5060190;28;20041;-67
2021/03/27 04:42:43;;;;;;;10.63;2.60;;;;;;;5.71;77.76;101147.28;5063218;28;20448;-67
2021/03/27 04:45:19;;;;;;;10.40;2.10;;;;;;;5.70;77.80;101155.03;5060985;28;20039;-66
2021/03/27 04:47:47;;;;;;;8.40;2.67;;;;;;;5.79;77.93;101157.69;5060777;28;20049;-66
2021/03/27 04:50:22;;;;;;;11.35;2.47;;;;;;;5.76;76.98;101158.53;5060418;28;20102;-67
2021/03/27 04:52:59;;;;;;;11.27;2.70;;;;;;;5.66;77.63;101163.59;5057563;28;20095;-66
2021/03/27 04:55:32;;;;;;;9.50;2.05;;;;;;;5.65;77.50;101167.03;5061429;28;20045;-66
2021/03/27 04:58:08;;;;;;;11.75;3.17;;;;;;;5.67;77.36;101173.06;5061105;28;20154;-67
2021/03/27 05:00:49;;;;;;;9.52;2.33;;;;;;;5.67;77.35;101171.38;5059645;28;20040;-67
2021/03/27 05:03:24;;;;;;;11.00;2.20;;;;;;;5.57;77.48;101178.16;5065884;28;20045;-67
2021/03/27 05:05:55;;;;;;;12.93;2.40;;;;;;;5.56;77.44;101179.00;5062916;28;20060;-67
2021/03/27 05:08:55;;;;;;;17.73;2.70;;;;;;;5.54;77.43;101180.69;5062093;28;20044;-66
2021/03/27 05:11:32;;;;;;;9.32;2.42;;;;;;;5.54;77.34;101177.28;5061421;28;20044;-68
2021/03/27 05:14:07;;;;;;;14.25;3.63;;;;;;;5.57;77.58;101169.56;5063088;28;20043;-67
2021/03/27 05:16:37;;;;;;;7.22;2.20;;;;;;;5.68;77.39;101172.22;5056582;28;20048;-67
2021/03/27 05:19:11;;;;;;;16.30;2.72;;;;;;;5.61;77.74;101179.03;5062294;28;20051;-68
2021/03/27 05:21:47;;;;;;;12.77;2.05;;;;;;;5.66;77.45;101173.91;5063032;28;20045;-67
2021/03/27 05:24:25;;;;;;;14.90;1.95;;;;;;;5.65;77.36;101173.06;5061478;28;20041;-68
2021/03/27 05:27:03;;;;;;;14.80;3.72;;;;;;;5.67;77.73;101173.06;5056565;28;20052;-67
2021/03/27 05:29:52;;;;;;;12.07;2.40;;;;;;;5.63;77.56;101185.09;5057920;28;20040;-66
2021/03/27 05:32:45;;;;;;;12.27;2.33;;;;;;;5.55;78.30;101194.50;5061971;28;20068;-66
2021/03/27 05:35:24;;;;;;;12.65;2.80;;;;;;;5.46;77.99;101203.00;5057690;28;20052;-66
2021/03/27 05:38:02;;;;;;;9.23;2.10;;;;;;;5.53;78.11;101209.97;5059024;28;20048;-68
2021/03/27 05:40:47;;;;;;;10.27;2.35;;;;;;;5.58;78.10;101216.03;5061006;28;20041;-67
2021/03/27 05:43:32;;;;;;;14.73;2.20;;;;;;;5.49;79.67;101220.25;5054513;28;20041;-67
2021/03/27 05:46:50;;;;;;;12.13;3.47;;;;;;;5.50;79.70;101229.69;5061066;28;20052;-66
2021/03/27 05:49:51;;;;;;;12.23;1.83;;;;;;;5.42;79.33;101222.75;5059440;28;20037;-67
2021/03/27 05:52:34;;;;;;;15.43;3.88;;;;;;;5.40;80.39;101224.44;5020025;28;20474;-67
2021/03/27 05:55:28;;;;;;;15.55;3.58;;;;;;;5.47;79.73;101224.50;5062234;28;20060;-67
2021/03/27 05:58:38;;;;;;;10.48;2.17;;;;;;;5.53;79.55;101230.59;5062029;28;20590;-67
2021/03/27 06:01:37;;;;;;;15.63;2.42;;;;;;;5.55;78.80;101233.19;5022636;28;20497;-67
2021/03/27 06:04:19;;;;;;;17.05;4.35;;;;;;;5.65;78.33;101234.13;5061837;28;20040;-69
2021/03/27 06:07:23;;;;;;;13.57;2.35;;;;;;;5.68;78.17;101235.03;5061828;28;20044;-68
2021/03/27 06:10:09;;;;;;;15.40;2.95;;;;;;;5.74;77.79;101236.78;5063279;28;20055;-66
2021/03/27 06:12:47;;;;;;;13.00;3.08;;;;;;;5.81;77.39;101238.59;5065475;28;20044;-67
2021/03/27 06:15:37;;;;;;;13.35;3.00;;;;;;;5.86;77.01;101247.22;5059809;28;20098;-67
2021/03/27 06:18:50;;;;;;;10.45;2.28;;;;;;;6.00;76.65;101236.19;5060746;28;20059;-68
2021/03/27 06:21:29;;;;;;;10.88;2.75;;;;;;;6.05;76.04;101244.81;5043045;28;20044;-67
2021/03/27 06:24:13;;;;;;;11.30;2.20;;;;;;;6.04;76.03;101248.25;5067526;28;20397;-67
2021/03/27 06:27:10;;;;;;;14.35;2.47;;;;;;;6.18;75.51;101249.25;5065497;28;20127;-68
2021/03/27 06:30:11;;;;;;;9.18;2.47;;;;;;;6.34;75.11;101254.50;5068802;28;20044;-67
2021/03/27 06:33:14;;;;;;;18.13;2.88;;;;;;;6.16;75.93;101253.53;5063337;28;20074;-67
2021/03/27 06:36:18;;;;;;;17.17;2.45;;;;;;;6.01;75.09;101271.50;5059548;28;20045;-67
2021/03/27 06:39:32;;;;;;;20.25;3.47;;;;;;;5.96;76.79;101275.72;5018394;28;20052;-70
2021/03/27 06:42:25;;;;;;;13.52;2.60;;;;;;;5.98;77.17;101276.59;5063336;28;20543;-68
2021/03/27 06:45:28;;;;;;;15.60;3.22;;;;;;;5.95;77.29;101287.75;5063762;28;20055;-65
2021/03/27 06:48:20;;;;;;;17.33;2.60;;;;;;;5.98;77.84;101284.34;5064027;28;20051;-67
2021/03/27 06:51:01;;;;;;;17.15;2.80;;;;;;;5.90;77.60;101292.00;5019923;28;20087;-67
2021/03/27 06:53:38;;;;;;;14.98;2.78;;;;;;;5.81;77.96;101300.56;5064558;28;20044;-67
2021/03/27 06:56:47;;;;;;;12.90;2.67;;;;;;;5.73;77.99;101302.19;5060575;28;20041;-67
2021/03/27 06:59:38;;;;;;;10.27;2.92;;;;;;;5.81;78.24;101299.66;5042861;28;20048;-67
2021/03/27 07:02:32;;;;;;;12.68;2.60;;;;;;;5.90;77.42;101411.66;5052178;28;20057;-67
2021/03/27 07:05:33;;;;;;;4.18;0.73;;;;;;;5.13;73.47;101388.34;5061317;28;20041;-67
2021/03/27 07:08:14;;;;;;;9.27;1.50;;;;;;;4.44;74.96;101387.31;5060476;28;20056;-65
2021/03/27 07:11:17;;;;;;;5.22;1.08;;;;;;;4.21;76.54;101392.94;5060423;28;20044;-69
2021/03/27 07:14:37;;;;;;;3.83;0.85;;;;;;;3.98;77.36;101393.38;5065115;28;20048;-66
2021/03/27 07:17:42;;;;;;;6.95;0.90;;;;;;;3.68;78.47;101393.66;4984585;28;20476;-65
2021/03/27 07:20:37;;;;;;;4.18;0.85;;;;;;;3.65;79.58;101385.88;5044749;28;20114;-67
2021/03/27 07:23:34;;;;;;;10.82;1.35;;;;;;;3.72;79.60;101386.03;5056845;28;20055;-65
2021/03/27 07:26:22;;;;;;;10.02;0.93;;;;;;;3.70;80.18;101398.00;5062660;28;20072;-65
2021/03/27 07:29:04;;;;;;;7.32;1.15;;;;;;;3.80;80.19;101404.19;5063656;28;20048;-65
2021/03/27 07:31:50;;;;;;;5.05;1.40;;;;;;;4.01;79.79;101411.47;5058032;28;20056;-65
2021/03/27 07:34:35;;;;;;;11.82;1.83;;;;;;;4.04;78.68;101419.22;5059398;28;20048;-66
2021/03/27 07:37:19;;;;;;;8.45;1.52;;;;;;;4.22;78.61;101425.56;5066533;28;20067;-66
2021/03/27 07:40:05;;;;;;;7.60;1.48;;;;;;;4.21;79.03;101426.41;5064888;28;20056;-69
2021/03/27 07:42:44;;;;;;;8.10;1.27;;;;;;;4.03;79.88;101416.63;5061385;28;20040;-65
2021/03/27 07:45:45;;;;;;;7.22;0.98;;;;;;;4.18;79.29;101414.34;5064088;28;20048;-66
2021/03/27 07:48:41;;;;;;;9.82;1.77;;;;;;;4.31;79.28;101425.72;5054593;28;20041;-65
2021/03/27 07:51:24;;;;;;;9.75;1.63;;;;;;;4.39;78.44;101445.59;5061060;28;20072;-65
2021/03/27 07:54:25;;;;;;;6.78;2.17;;;;;;;4.50;78.20;101441.50;5069437;28;20052;-66
2021/03/27 07:57:12;;;;;;;10.43;1.80;;;;;;;4.30;79.63;101447.16;5062379;28;20098;-64
2021/03/27 07:59:56;;;;;;;8.82;1.70;;;;;;;4.31;79.69;101456.63;5061525;28;20402;-64
2021/03/27 08:02:41;;;;;;;10.20;1.70;;;;;;;4.41;79.66;101456.81;5066845;28;20495;-64
2021/03/27 08:05:58;;;;;;;6.53;2.22;;;;;;;4.62;79.81;101464.91;5058408;28;20067;-65
2021/03/27 08:08:57;;;;;;;9.32;2.38;;;;;;;4.72;79.01;101467.63;5060626;28;20536;-66
2021/03/27 08:11:47;;;;;;;8.40;2.03;;;;;;;4.85;79.58;101471.28;5061361;28;20036;-68
2021/03/27 08:14:27;;;;;;;8.98;1.85;;;;;;;4.96;79.08;101474.91;5062630;28;20475;-66
2021/03/27 08:17:36;;;;;;;11.90;2.50;;;;;;;5.06;79.65;101481.94;5053564;28;20095;-65
2021/03/27 08:20:14;;;;;;;7.53;2.00;;;;;;;4.98;79.42;101484.38;5051497;28;20041;-66
2021/03/27 08:23:00;;;;;;;10.27;2.60;;;;;;;5.02;79.05;101482.72;5060518;28;20063;-67
2021/03/27 08:25:36;;;;;;;11.63;2.60;;;;;;;5.22;79.44;101488.22;5065656;28;20051;-66
2021/03/27 08:28:41;;;;;;;13.10;3.47;;;;;;;5.26;79.79;101492.53;5058436;28;20173;-67
2021/03/27 08:31:27;;;;;;;10.75;2.30;;;;;;;5.45;79.18;101498.84;5066130;28;20055;-66
2021/03/27 08:34:11;;;;;;;10.15;2.80;;;;;;;5.69;80.21;101504.31;5058043;28;20086;-66
2021/03/27 08:37:23;;;;;;;8.05;2.88;;;;;;;5.92;77.78;101504.63;5058450;28;20049;-67
2021/03/27 08:40:24;;;;;;;13.00;3.00;;;;;;;6.13;76.32;101510.94;4983081;28;20054;-66
2021/03/27 08:43:19;;;;;;;15.88;3.10;;;;;;;6.14;76.69;101507.50;4985170;28;20046;-66
2021/03/27 08:46:21;;;;;;;18.07;3.80;;;;;;;6.29;76.41;101506.81;5048339;28;20048;-65
2021/03/27 08:49:07;;;;;;;17.02;3.00;;;;;;;6.47;75.66;101514.75;5065940;28;20044;-66
2021/03/27 08:51:44;;;;;;;16.17;2.78;;;;;;;6.73;75.47;101511.56;5018106;28;20045;-68
2021/03/27 08:54:41;;;;;;;11.52;2.35;;;;;;;6.93;71.26;101516.06;5058641;28;20571;-69
2021/03/27 08:57:54;;;;;;;16.33;2.92;;;;;;;7.00;73.03;101523.84;5051669;28;20119;-67
2021/03/27 09:00:56;;;;;;;11.93;3.17;;;;;;;7.18;69.49;101522.28;4977045;28;20049;-68
2021/03/27 09:03:56;;;;;;;16.73;3.20;;;;;;;7.41;69.08;101519.84;5063814;28;20048;-68
2021/03/27 09:06:37;;;;;;;17.77;3.25;;;;;;;7.67;68.95;101520.88;5063576;28;20481;-66
2021/03/27 09:09:25;;;;;;;21.33;3.10;;;;;;;7.56;66.05;101533.72;5060750;28;20500;-67
2021/03/27 09:12:05;;;;;;;11.27;3.67;;;;;;;7.61;66.05;101538.09;5056805;28;20049;-66
2021/03/27 09:18:08;;;;;;;16.63;2.70;;;;;;;7.54;66.91;101545.78;5049606;28;20103;-68
2021/03/27 09:20:46;;;;;;;12.10;2.45;;;;;;;7.38;65.60;101556.06;5061162;28;20417;-66
2021/03/27 09:23:21;;;;;;;13.88;2.45;;;;;;;7.27;66.43;101568.03;5058710;28;20047;-66
2021/03/27 09:26:16;;;;;;;9.80;2.60;;;;;;;7.35;65.81;101568.13;5051072;28;20057;-66
2021/03/27 09:28:54;;;;;;;14.00;3.05;;;;;;;7.18;65.95;101573.16;5054456;28;20045;-66
2021/03/27 09:32:01;;;;;;;13.68;2.25;;;;;;;7.04;64.89;101584.22;5060744;28;20110;-68
2021/03/27 09:34:47;;;;;;;22.55;2.67;;;;;;;7.14;65.06;101613.66;5066229;28;20055;-65
2021/03/27 09:37:34;;;;;;;6.85;1.08;;;;;;;6.70;66.21;101596.84;5073016;22;20059;-66
2021/03/27 09:40:12;;;;;;;4.50;0.70;;;;;;;6.29;66.97;101584.31;5060082;28;20137;-67
2021/03/27 09:42:52;;;;;;;2.33;0.60;;;;;;;6.16;68.42;101581.56;5067660;28;20044;-67
2021/03/27 09:45:29;;;;;;;5.35;0.90;;;;;;;5.81;69.60;101606.88;5066109;28;20044;-66
2021/03/27 09:48:14;;;;;;;5.78;1.08;;;;;;;5.49;72.43;101620.19;5060979;28;20040;-66
2021/03/27 09:50:51;;;;;;;4.00;1.00;;;;;;;5.38;72.59;101620.00;5062397;28;20040;-65
2021/03/27 09:53:31;;;;;;;5.57;1.08;;;;;;;5.32;73.36;101625.06;5064521;28;20041;-66
2021/03/27 09:56:03;;;;;;;6.50;1.02;;;;;;;5.36;73.77;101637.16;5061919;28;20040;-65
2021/03/27 09:58:43;;;;;;;3.72;0.70;;;;;;;5.07;73.73;101624.63;5067364;28;20090;-66
2021/03/27 10:01:25;;;;;;;6.43;1.02;;;;;;;5.13;74.94;101632.47;5065495;28;20049;-64
2021/03/27 10:04:35;;;;;;;6.03;0.98;;;;;;;5.13;75.02;101647.97;5058759;28;20319;-66
2021/03/27 10:07:14;;;;;;;6.07;1.20;;;;;;;4.91;76.03;101698.22;5055598;28;20044;-66
2021/03/27 10:10:16;;;;;;;4.97;1.52;;;;;;;4.66;76.60;101687.44;5060735;28;20256;-65
2021/03/27 10:12:58;;;;;;;7.68;1.70;;;;;;;4.55;77.26;101679.47;5064541;28;20049;-65
2021/03/27 10:15:30;;;;;;;10.07;1.85;;;;;;;4.52;77.99;101679.44;5059875;28;20040;-66
2021/03/27 10:18:05;;;;;;;11.23;1.58;;;;;;;4.63;78.07;101690.84;5066946;28;20044;-66
2021/03/27 10:23:58;;;;;;;10.40;1.52;;;;;;;4.54;76.22;101671.72;5055306;28;20040;-65
2021/03/27 10:26:31;;;;;;;2.72;1.08;;;;;;;4.56;75.68;101681.22;5059463;28;20040;-65
2021/03/27 10:29:08;;;;;;;3.90;1.35;;;;;;;4.57;78.25;101661.50;5059301;28;20045;-65
2021/03/27 10:31:41;;;;;;;8.65;1.92;;;;;;;4.83;78.72;101664.59;5061471;28;20478;-65
2021/03/27 10:34:24;;;;;;;7.78;1.70;;;;;;;5.21;78.12;101672.16;5065363;28;20052;-66
2021/03/27 10:37:01;;;;;;;5.93;1.88;;;;;;;5.56;76.95;101679.63;5052114;28;20048;-62
2021/03/27 10:39:39;;;;;;;8.20;1.92;;;;;;;5.84;75.53;101680.09;5055906;28;20052;-62
2021/03/27 10:42:44;;;;;;;10.95;2.15;;;;;;;5.87;74.71;101674.13;5056804;28;20053;-62
2021/03/27 10:45:25;;;;;;;9.88;2.08;;;;;;;5.99;74.64;101681.19;5030540;28;20136;-64
2021/03/27 10:48:12;;;;;;;9.52;1.95;;;;;;;6.06;74.32;101683.03;5059656;28;20325;-63
2021/03/27 10:50:43;;;;;;;22.95;5.30;;;;;;;6.17;75.66;101686.63;5061493;28;20457;-62
2021/03/27 10:53:23;;;;;;;9.10;2.65;;;;;;;6.41;75.59;101689.53;5060196;28;20153;-64
2021/03/27 10:56:04;;;;;;;11.10;2.63;;;;;;;6.67;74.08;101684.72;5061359;28;20099;-63
2021/03/27 11:02:35;;;;;;;15.65;3.40;;;;;;;7.45;68.42;101691.56;5049621;28;20166;-64
2021/03/27 11:05:24;;;;;;;15.35;2.70;;;;;;;7.24;66.54;101724.16;5058468;28;20045;-63
2021/03/27 11:08:33;;;;;;;9.55;2.30;;;;;;;6.90;67.27;101715.16;5056892;28;20045;-63
2021/03/27 11:11:18;;;;;;;10.18;2.22;;;;;;;6.91;69.47;101711.72;5048940;28;20131;-63
2021/03/27 11:14:12;;;;;;;11.77;2.25;;;;;;;6.86;67.98;101714.25;5062390;28;20097;-63
2021/03/27 11:16:58;;;;;;;12.18;2.72;;;;;;;6.89;68.66;101716.00;5061581;28;20057;-64
2021/03/27 11:20:12;;;;;;;10.63;2.50;;;;;;;6.92;67.21;101722.06;5066471;28;20040;-62
2021/03/27 11:23:17;;;;;;;9.43;3.05;;;;;;;6.97;67.57;101737.66;5033126;28;20048;-64
2021/03/27 11:26:13;;;;;;;11.93;2.72;;;;;;;7.07;66.36;101751.56;5060800;28;20049;-63
2021/03/27 11:28:46;;;;;;;10.32;2.97;;;;;;;7.02;66.69;101740.28;5060005;28;20052;-63
2021/03/27 11:31:24;;;;;;;14.13;3.10;;;;;;;7.09;66.76;101744.66;5056942;28;20397;-64
2021/03/27 11:34:04;;;;;;;12.35;2.67;;;;;;;7.26;63.29;101742.28;5059552;28;20103;-63
2021/03/27 11:36:38;;;;;;;5.15;1.35;;;;;;;7.34;62.01;101750.13;5062675;28;20044;-63
2021/03/27 11:39:17;;;;;;;3.38;1.10;;;;;;;7.50;62.57;101744.25;5062864;28;20397;-63
2021/03/27 11:41:56;;;;;;;9.30;1.77;;;;;;;7.66;61.14;101752.19;5062512;28;20089;-61
2021/03/27 11:44:40;;;;;;;5.53;1.38;;;;;;;7.85;61.12;101758.38;5064199;28;20048;-64
2021/03/27 11:47:23;;;;;;;7.50;1.83;;;;;;;7.79;61.33;101764.38;5061808;28;20481;-64
2021/03/27 11:49:57;;;;;;;6.32;1.50;;;;;;;7.76;60.15;101757.44;5054376;28;20049;-63
2021/03/27 11:52:33;;;;;;;5.35;1.40;;;;;;;7.85;60.43;101755.78;5061463;28;20382;-63
2021/03/27 11:55:15;;;;;;;7.93;1.50;;;;;;;8.05;60.33;101764.59;5063118;28;20047;-64
2021/03/27 11:57:48;;;;;;;12.00;2.60;;;;;;;8.25;59.52;101761.28;5062107;28;20044;-65
2021/03/27 12:01:00;;;;;;;13.02;2.47;;;;;;;8.52;59.20;101754.59;5059142;28;20418;-64
2021/03/27 12:03:35;;;;;;;12.95;2.53;;;;;;;8.73;57.84;101771.13;5051716;28;20138;-64
2021/03/27 12:06:16;;;;;;;11.63;3.55;;;;;;;8.80;57.15;101770.28;5055596;28;20052;-64
2021/03/27 12:08:55;;;;;;;18.02;2.40;;;;;;;8.81;57.26;101780.66;5056456;28;20052;-63
2021/03/27 12:11:29;;;;;;;14.75;2.25;;;;;;;8.94;55.84;101783.31;5056376;28;20052;-64
2021/03/27 12:14:02;;;;;;;8.90;1.85;;;;;;;8.81;57.11;101782.41;5049064;28;21304;-63
2021/03/27 12:16:36;;;;;;;9.57;2.40;;;;;;;8.80;58.40;101778.94;5056576;28;20053;-63
2021/03/27 12:19:25;;;;;;;16.17;2.50;;;;;;;8.82;54.83;101786.72;5058738;28;20054;-62
2021/03/27 12:22:01;;;;;;;8.82;1.88;;;;;;;8.98;55.26;101783.34;5054747;28;20048;-63
2021/03/27 12:24:39;;;;;;;9.05;1.88;;;;;;;9.21;53.40;101792.97;5057892;28;20044;-66
2021/03/27 12:27:19;;;;;;;9.73;1.85;;;;;;;9.27;47.72;101790.38;5058643;28;20052;-66
2021/03/27 12:29:48;;;;;;;8.80;1.15;;;;;;;9.43;44.42;101787.84;5065402;28;20053;-64
2021/03/27 12:32:41;;;;;;;9.07;1.50;;;;;;;9.44;46.24;101818.09;5058800;28;20056;-65
2021/03/27 12:35:18;;;;;;;8.95;1.63;;;;;;;9.36;46.09;101796.44;5056514;28;20063;-66
2021/03/27 12:38:04;;;;;;;8.88;1.73;;;;;;;9.20;44.12;101804.19;5060080;28;20090;-66
2021/03/27 12:40:35;;;;;;;7.55;1.35;;;;;;;9.10;43.57;101805.03;5062896;28;20049;-66
2021/03/27 12:43:07;;;;;;;4.88;1.30;;;;;;;9.02;44.58;101818.84;5063239;28;20053;-68
2021/03/27 12:45:38;;;;;;;7.30;1.20;;;;;;;9.13;44.55;101812.84;5062474;28;20045;-66
2021/03/27 12:48:28;;;;;;;6.85;1.35;;;;;;;9.23;43.95;101830.19;5054955;28;20048;-66